KAPF/APF METAR and TAF weather

Enter ICAO airport designator
Station Type Date Time Source
KAPF METAR 2019/06/24 22:53 UTC NOAA

KAPF 242253Z 30010KT 10SM CLR 32/24 A3000 RMK AO2 LTG DSNT E SLP158 T03220244


Station Type Date Time Source
KAPF Decoded METAR 2019/06/24 22:53 UTC NOAA

NAPLES MUNICIPAL AIRPORT, FL, United States (KAPF) 26-09N 081-46W
Jun 24, 2019 - 06:53 PM EDT / 2019.06.24 2253 UTC
Wind: from the WNW (300 degrees) at 12 MPH (10 KT):0
Visibility: 10 mile(s):0
Sky conditions: clear
Weather: Lightning observed
Temperature: 90.0 F (32.2 C)
Heat index: 101.5 F (38.6 C):1
Dew Point: 75.9 F (24.4 C)
Relative Humidity: 63%
Pressure (altimeter): 30 in. Hg (1015 hPa)
ob: KAPF 242253Z 30010KT 10SM CLR 32/24 A3000 RMK AO2 LTG DSNT E SLP158 T03220244
cycle: 23

Station Type Date Time Source
KAPF TAF 2019/06/24 18:42 UTC NOAA

TAF KAPF 241739Z 2418/2518 26010KT P6SM SKC
FM250000 VRB04KT P6SM SKC

Example: see airport list